createdAt,value
2022-08-22T18:19:56.139Z,100815.94
2022-08-22T18:25:19.731Z,100813.47
2022-08-22T18:32:02.724Z,100819.81
2022-08-22T18:35:19.124Z,100835.47
2022-08-22T18:38:20.643Z,100841.03
2022-08-22T18:56:42.585Z,100860.34
2022-08-22T19:00:05.570Z,100842.78
2022-08-22T19:02:38.674Z,100861.66
2022-08-22T19:06:34.117Z,100862.22
2022-08-22T19:09:25.217Z,100873.28
2022-08-22T19:12:25.672Z,100854.03
2022-08-22T19:15:18.059Z,100868.09
2022-08-22T19:18:20.275Z,100862.63
2022-08-22T19:36:03.831Z,100885.72
2022-08-22T20:07:41.295Z,100903.81
2022-08-22T20:10:45.950Z,100904.25
2022-08-22T20:13:17.319Z,100905.09
2022-08-22T20:19:41.651Z,100885.06
2022-08-22T20:22:17.996Z,100893.06
2022-08-22T20:26:16.225Z,100911.97
2022-08-22T20:29:00.025Z,100911.66
2022-08-22T20:31:37.292Z,100900.03
2022-08-22T20:34:38.075Z,100897.63
2022-08-22T20:38:15.935Z,100892.00
2022-08-22T20:40:54.801Z,100905.22
2022-08-22T20:52:54.390Z,100905.16
2022-08-22T20:55:31.901Z,100916.75
2022-08-22T21:01:26.106Z,100917.38
2022-08-22T21:09:58.211Z,100901.03
2022-08-22T22:18:00.056Z,100896.66
2022-08-22T22:20:28.879Z,100899.88
2022-08-22T22:22:56.370Z,100897.06
2022-08-22T22:25:40.059Z,100906.75
2022-08-22T22:28:23.779Z,100899.19
2022-08-22T22:30:53.692Z,100908.94
2022-08-22T22:33:25.016Z,100905.34
2022-08-22T22:35:54.777Z,100930.69
2022-08-22T22:38:24.903Z,100904.09
2022-08-22T22:40:53.005Z,100929.06
2022-08-22T22:43:20.488Z,100920.28
2022-08-22T22:45:47.815Z,100919.44
2022-08-22T22:48:23.775Z,100926.69
2022-08-22T22:50:52.594Z,100914.69
2022-08-22T22:53:21.383Z,100930.38
2022-08-22T22:56:06.278Z,100914.72
2022-08-22T22:58:35.799Z,100928.44
2022-08-22T23:04:37.397Z,100906.56
2022-08-22T23:07:06.135Z,100930.66
2022-08-22T23:09:38.768Z,100925.81
2022-08-22T23:12:12.697Z,100927.81
2022-08-22T23:14:40.106Z,100925.84
2022-08-22T23:17:08.248Z,100906.94
2022-08-22T23:19:39.622Z,100894.41
2022-08-22T23:22:40.786Z,100894.84
2022-08-22T23:25:08.336Z,100891.56
2022-08-22T23:27:55.754Z,100908.91
2022-08-22T23:30:23.580Z,100877.19
2022-08-22T23:33:45.601Z,100900.09
2022-08-22T23:36:19.138Z,100877.22
2022-08-22T23:39:00.510Z,100897.31
2022-08-22T23:42:03.531Z,100856.25
2022-08-22T23:44:55.537Z,100895.72
2022-08-22T23:48:04.651Z,100885.25
2022-08-22T23:53:16.205Z,100871.63
2022-08-22T23:56:19.400Z,100875.66
2022-08-22T23:58:53.680Z,100872.47
